Latest Weather Observations for Nhill Aerodrome

IDV60801

Issued at 10:32 am EDT Sunday 17 February 2019 (issued every 10 minutes, with the page automatically refreshed every 10 minutes)

About weather observations | Map of weather stations | Latest weather observations for VIC | Other Formats
Station Details ID: 078015 Name: NHILL AERODROME Lat: -36.31 Lon: 141.65 Height: 138.9 m
Data from the previous 72 hours. | See also: Recent months at Nhill Aerodrome
Date/Time
EDT
Temp
°C
App
Temp
°C
Dew
Point
°C
Rel
Hum
%
Delta-T
°C
Wind Press
QNH
hPa
Press
MSL
hPa
Rain since
9am
mm
Dir  Spd
km/h
Gust
km/h
Spd
kts
Gust
kts
17/10:30am 25.6 24.2 9.0 35 9.1 N 6 9 3 5 1013.7 1013.1 0.0
17/10:00am 24.8 24.2 10.3 40 8.1 NE 4 9 2 5 1013.7 1013.1 0.0
17/09:30am 21.7 21.1 10.5 49 6.2 ENE 4 7 2 4 1013.7 1013.1 0.0
17/09:00am 20.5 18.7 9.4 49 5.9 NE 9 13 5 7 1013.6 1013.0 0.0
17/08:30am 18.1 18.2 10.2 60 4.2 CALM 0 0 0 0 1013.5 1012.9 0.0
17/08:00am 17.1 17.2 10.0 63 3.8 CALM 0 0 0 0 1013.2 1012.6 0.0
17/07:30am 16.2 16.1 9.6 65 3.5 CALM 0 0 0 0 1013.2 1012.6 0.0
17/07:00am 16.1 16.0 9.3 64 3.5 CALM 0 0 0 0 1012.9 1012.4 0.0
17/06:30am 16.2 16.1 9.4 64 3.6 CALM 0 0 0 0 1012.5 1012.0 0.0
17/06:00am 16.4 16.2 10.3 67 3.2 SE 2 6 1 3 1012.4 1011.9 0.0
17/05:30am 15.8 14.4 9.5 66 3.3 SE 7 7 4 4 1012.3 1011.8 0.0
17/05:00am 15.2 14.8 8.2 63 3.5 CALM 0 0 0 0 1012.4 1011.9 0.0
17/04:30am 15.8 15.4 8.3 61 3.8 CALM 0 0 0 0 1012.4 1011.9 0.0
17/04:00am 16.4 16.2 8.9 61 3.9 CALM 0 6 0 3 1012.6 1012.1 0.0
17/03:30am 16.6 15.0 8.6 59 4.1 E 7 9 4 5 1012.7 1012.2 0.0
17/03:00am 17.9 16.4 9.3 57 4.5 E 7 9 4 5 1012.9 1012.4 0.0
17/02:30am 17.4 15.5 9.1 58 4.3 ESE 9 13 5 7 1013.3 1012.7 0.0
17/02:00am 18.6 17.1 8.3 51 5.3 SE 6 9 3 5 1013.7 1013.1 0.0
17/01:30am 19.5 17.9 8.2 48 5.9 SE 6 7 3 4 1014.2 1013.6 0.0
17/01:00am 19.7 17.9 7.8 46 6.2 SE 7 9 4 5 1014.5 1013.9 0.0
17/12:30am 19.8 17.8 7.2 44 6.4 SE 7 11 4 6 1014.6 1014.0 0.0
17/12:00am 19.6 16.4 7.0 44 6.4 SSE 13 13 7 7 1014.8 1014.2 0.0
 
Date/Time
EDT
Temp
°C
App
Temp
°C
Dew
Point
°C
Rel
Hum
%
Delta-T
°C
Wind Press
QNH
hPa
Press
MSL
hPa
Rain since
9am
mm
Dir  Spd
km/h
Gust
km/h
Spd
kts
Gust
kts
16/11:30pm 20.5 18.1 6.8 41 7.0 SSE 9 11 5 6 1014.9 1014.3 0.0
16/11:00pm 20.9 18.0 6.4 39 7.4 S 11 13 6 7 1014.9 1014.3 0.0
16/10:30pm 21.6 18.2 5.9 36 7.9 S 13 15 7 8 1015.0 1014.4 0.0
16/10:00pm 22.7 19.8 4.7 31 8.9 SSW 9 11 5 6 1014.8 1014.2 0.0
16/09:30pm 23.8 20.1 4.7 29 9.6 S 13 15 7 8 1014.5 1013.9 0.0
16/09:00pm 24.9 20.8 4.1 26 10.4 S 15 15 8 8 1014.2 1013.6 0.0
16/08:30pm 27.5 22.9 3.9 22 11.9 SSW 17 20 9 11 1014.1 1013.5 0.0
16/08:00pm 29.7 24.4 2.1 17 13.7 SSW 19 26 10 14 1013.8 1013.2 0.0
16/07:30pm 30.8 25.4 1.2 15 14.6 SW 19 26 10 14 1013.7 1013.1 0.0
16/07:00pm 31.3 26.6 0.6 14 15.0 SW 15 22 8 12 1013.7 1013.1 0.0
16/06:30pm 32.1 27.1 -0.9 12 15.8 W 15 24 8 13 1013.8 1013.2 0.0
16/06:00pm 31.6 26.4 -0.1 13 15.4 SW 17 26 9 14 1013.9 1013.3 0.0
16/05:30pm 31.5 26.4 0.8 14 15.1 W 17 26 9 14 1013.9 1013.3 0.0
16/05:00pm 32.2 26.7 0.3 13 15.6 W 19 28 10 15 1014.1 1013.5 0.0
16/04:30pm 31.4 26.5 1.7 15 14.8 WSW 17 28 9 15 1014.5 1013.9 0.0
16/04:00pm 31.4 27.0 2.6 16 14.6 WNW 15 26 8 14 1014.9 1014.3 0.0
16/03:30pm 30.9 26.1 4.6 19 13.7 WNW 19 26 10 14 1015.2 1014.6 0.0
16/03:00pm 31.0 26.1 3.9 18 14.0 NW 19 30 10 16 1015.7 1015.2 0.0
16/02:30pm 30.4 25.3 4.2 19 13.6 W 20 32 11 17 1016.1 1015.6 0.0
16/02:00pm 30.1 25.1 4.7 20 13.2 W 20 32 11 17 1016.5 1016.0 0.0
16/01:30pm 29.3 25.0 5.4 22 12.5 WNW 17 28 9 15 1016.7 1016.2 0.0
16/01:00pm 28.8 25.8 6.2 24 12.0 W 11 24 6 13 1017.3 1016.8 0.0
16/12:30pm 28.2 25.0 6.9 26 11.4 W 13 17 7 9 1017.7 1017.2 0.0
16/12:00pm 26.7 24.5 7.7 30 10.2 WNW 9 20 5 11 1018.2 1017.7 0.0
16/11:30am 26.1 23.6 6.7 29 10.2 WNW 9 17 5 9 1018.5 1018.0 0.0
16/11:00am 25.6 24.4 9.4 36 8.9 NW 6 9 3 5 1018.7 1018.2 0.0
16/10:30am 25.0 24.4 11.6 43 7.6 WNW 6 9 3 5 1018.8 1018.3 0.0
16/10:00am 23.2 23.0 11.9 49 6.4 E 4 9 2 5 1018.9 1018.4 0.0
16/09:30am 21.5 20.7 12.9 58 4.9 E 9 13 5 7 1018.8 1018.3 0.0
16/09:00am 17.2 16.8 12.3 73 2.7 SSE 6 7 3 4 1018.8 1018.3 0.0
16/08:30am 14.9 14.2 12.0 83 1.6 S 7 9 4 5 1018.6 1018.1 0.0
16/08:00am 13.4 12.2 11.5 88 1.0 SSE 9 9 5 5 1018.3 1017.8 0.0
16/07:30am 12.8 11.0 10.9 88 1.0 SSE 11 13 6 7 1018.1 1017.6 0.0
16/07:00am 12.9 11.5 11.0 88 1.0 SE 9 11 5 6 1017.8 1017.3 0.0
16/06:30am 12.8 11.0 10.7 87 1.1 SSE 11 13 6 7 1017.8 1017.3 0.0
16/06:00am 12.9 11.0 10.6 86 1.2 S 11 15 6 8 1017.8 1017.3 0.0
16/05:30am 13.3 12.2 10.7 84 1.4 SSE 7 9 4 5 1018.1 1017.6 0.0
16/05:00am 13.7 12.3 10.9 83 1.5 SSE 9 11 5 6 1018.3 1017.8 0.0
16/04:30am 14.5 12.9 11.5 82 1.6 SSE 11 13 6 7 1018.3 1017.8 0.0
16/04:00am 15.1 13.6 11.9 81 1.7 S 11 15 6 8 1018.5 1018.0 0.0
16/03:30am 15.5 13.2 11.9 79 2.0 S 15 19 8 10 1018.4 1017.9 0.0
16/03:00am 15.8 13.6 12.0 78 2.1 SSE 15 19 8 10 1018.7 1018.2 0.0
16/02:30am 16.1 14.2 11.9 76 2.3 S 13 17 7 9 1019.0 1018.5 0.0
16/02:00am 16.8 14.6 12.1 74 2.6 SSE 15 19 8 10 1019.4 1018.9 0.0
16/01:30am 17.4 14.8 12.1 71 2.9 S 17 20 9 11 1019.7 1019.2 0.0
16/01:00am 17.9 14.9 11.9 68 3.3 S 19 24 10 13 1019.9 1019.4 0.0
16/12:30am 18.0 15.1 11.1 64 3.8 SSW 17 20 9 11 1020.0 1019.5 0.0
16/12:00am 18.9 16.8 11.0 60 4.3 S 13 17 7 9 1019.9 1019.4 0.0
 
Date/Time
EDT
Temp
°C
App
Temp
°C
Dew
Point
°C
Rel
Hum
%
Delta-T
°C
Wind Press
QNH
hPa
Press
MSL
hPa
Rain since
9am
mm
Dir  Spd
km/h
Gust
km/h
Spd
kts
Gust
kts
15/11:30pm 19.5 15.9 8.5 49 5.8 SSW 17 19 9 10 1020.2 1019.7 0.0
15/11:00pm 19.8 17.1 7.2 44 6.4 SSW 11 15 6 8 1020.1 1019.6 0.0
15/10:30pm 20.2 17.2 5.8 39 7.2 SSW 11 13 6 7 1020.0 1019.5 0.0
15/10:00pm 21.4 18.3 5.7 36 7.9 SSW 11 15 6 8 1019.7 1019.2 0.0
15/09:30pm 22.6 19.1 5.5 33 8.6 SSW 13 20 7 11 1019.4 1018.9 0.0
15/09:00pm 24.6 20.3 5.4 29 9.8 SW 17 20 9 11 1019.3 1018.8 0.0
15/08:30pm 25.9 21.1 5.5 27 10.5 SW 20 28 11 15 1018.8 1018.3 0.0
15/08:00pm 27.5 22.3 5.7 25 11.4 SW 22 30 12 16 1018.5 1018.0 0.0
15/07:30pm 28.7 24.2 6.1 24 12.0 SW 19 24 10 13 1018.4 1017.9 0.0
15/07:00pm 29.5 26.3 4.9 21 12.8 W 11 22 6 12 1018.3 1017.8 0.0
15/06:30pm 29.7 26.2 1.2 16 14.0 W 9 15 5 8 1018.5 1018.0 0.0
15/06:00pm 29.7 26.0 2.1 17 13.7 S 11 20 6 11 1018.6 1018.1 0.0
15/05:30pm 29.0 25.6 3.8 20 12.8 W 11 22 6 12 1018.8 1018.3 0.0
15/05:00pm 29.0 25.7 4.5 21 12.6 SSW 11 20 6 11 1018.8 1018.3 0.0
15/04:30pm 29.0 26.2 5.1 22 12.5 WSW 9 19 5 10 1019.1 1018.6 0.0
15/04:00pm 27.8 25.1 5.4 24 11.6 WSW 9 15 5 8 1019.6 1019.1 0.0
15/03:30pm 28.2 24.4 5.7 24 11.8 WNW 15 22 8 12 1020.1 1019.6 0.0
15/03:00pm 27.6 25.1 6.4 26 11.2 ESE 9 15 5 8 1020.7 1020.1 0.0
15/02:30pm 26.7 24.2 6.7 28 10.6 SSE 9 15 5 8 1021.3 1020.7 0.0
15/02:00pm 27.0 24.5 6.4 27 10.8 NW 9 22 5 12 1021.7 1021.2 0.0
15/01:30pm 26.1 23.6 6.7 29 10.2 S 9 17 5 9 1022.1 1021.6 0.0
15/01:00pm 25.1 22.9 7.7 33 9.2 SSW 9 15 5 8 1022.5 1022.0 0.0
15/12:30pm 24.7 22.9 7.8 34 9.0 NNW 7 15 4 8 1022.9 1022.4 0.0
15/12:00pm 23.5 21.6 9.1 40 7.8 NW 9 15 5 8 1023.3 1022.8 0.0
15/11:30am 23.1 21.5 10.2 44 7.1 NNE 9 15 5 8 1023.5 1023.0 0.0
15/11:00am 21.7 20.3 10.8 50 6.0 NE 9 15 5 8 1023.6 1023.1 0.0
15/10:30am 20.8 18.8 11.4 55 5.2 E 13 17 7 9 1023.6 1023.1 0.0
15/10:00am 19.2 16.4 11.5 61 4.2 E 17 22 9 12 1023.6 1023.1 0.0
15/09:30am 17.8 15.1 11.6 67 3.4 E 17 24 9 13 1023.4 1022.9 0.0
15/09:00am 16.0 13.3 11.6 75 2.4 ESE 17 20 9 11 1023.3 1022.8 0.0
15/08:30am 14.2 12.6 11.7 85 1.3 ESE 11 15 6 8 1023.2 1022.7 0.0
15/08:00am 12.8 11.0 11.0 89 0.9 SE 11 15 6 8 1023.0 1022.5 0.0
15/07:30am 11.5 9.8 9.8 89 0.9 SE 9 13 5 7 1022.9 1022.4 0.0
15/07:00am 11.4 10.0 9.7 89 0.9 ESE 7 9 4 5 1022.7 1022.2 0.0
15/06:30am 11.5 10.2 9.8 89 0.9 SSE 7 9 4 5 1022.6 1022.1 0.0
15/06:00am 11.5 9.4 9.6 88 1.0 SSE 11 13 6 7 1022.4 1021.9 0.0
15/05:30am 11.3 9.4 9.2 87 1.1 SSE 9 9 5 5 1022.1 1021.6 0.0
15/05:00am 11.7 9.9 9.4 86 1.2 SSE 9 11 5 6 1022.0 1021.5 0.0
15/04:30am 12.4 9.9 9.8 84 1.3 SSE 13 15 7 8 1022.0 1021.5 0.0
15/04:00am 13.1 10.7 10.1 82 1.6 SSE 13 17 7 9 1022.1 1021.6 0.0
15/03:30am 13.7 11.0 10.3 80 1.8 S 15 20 8 11 1022.2 1021.7 0.0
15/03:00am 14.2 11.1 10.2 77 2.1 S 17 22 9 12 1022.2 1021.7 0.0
15/02:30am 14.5 11.0 10.1 75 2.3 S 19 24 10 13 1022.1 1021.6 0.0
15/02:00am 14.8 11.6 10.0 73 2.5 S 17 20 9 11 1022.4 1021.9 0.0
15/01:30am 15.0 12.1 9.8 71 2.7 S 15 20 8 11 1022.4 1021.9 0.0
15/01:00am 15.0 12.0 9.4 69 2.9 SSW 15 19 8 10 1022.5 1022.0 0.0
15/12:30am 15.7 12.4 9.4 66 3.3 SSW 17 20 9 11 1022.3 1021.8 0.0
15/12:00am 16.4 13.1 9.6 64 3.6 SSW 17 20 9 11 1022.1 1021.6 0.0
 
Date/Time
EDT
Temp
°C
App
Temp
°C
Dew
Point
°C
Rel
Hum
%
Delta-T
°C
Wind Press
QNH
hPa
Press
MSL
hPa
Rain since
9am
mm
Dir  Spd
km/h
Gust
km/h
Spd
kts
Gust
kts
14/11:30pm 17.0 13.7 9.4 61 4.0 SSW 17 20 9 11 1022.1 1021.6 0.0
14/11:00pm 18.0 14.6 9.1 56 4.7 SSW 17 24 9 13 1022.1 1021.6 0.0
14/10:30pm 18.2 15.2 7.6 50 5.4 SW 13 17 7 9 1021.8 1021.3 0.0
14/10:00pm 18.3 15.9 6.8 47 5.8 SSW 9 11 5 6 1021.4 1020.8 0.0
14/09:30pm 18.6 16.2 6.8 46 5.9 SSW 9 11 5 6 1020.8 1020.2 0.0
14/09:00pm 19.4 16.4 6.2 42 6.6 SSW 11 13 6 7 1020.7 1020.1 0.0
14/08:30pm 20.7 17.8 6.3 39 7.3 SSW 11 13 6 7 1020.5 1020.0 0.0
14/08:00pm 22.9 19.5 5.8 33 8.7 SSW 13 17 7 9 1020.3 1019.8 0.0
14/07:30pm 23.5 19.3 5.9 32 9.0 SSW 17 24 9 13 1020.0 1019.5 0.0
14/07:00pm 23.8 19.4 6.6 33 8.9 SSW 19 26 10 14 1019.8 1019.3 0.0
14/06:30pm 24.1 19.6 6.8 33 9.0 WSW 20 28 11 15 1019.8 1019.3 0.0
14/06:00pm 23.6 20.0 6.8 34 8.7 SW 15 26 8 14 1019.7 1019.2 0.0
14/05:30pm 24.3 20.4 7.0 33 9.1 SSW 17 32 9 17 1019.7 1019.2 0.0
14/05:00pm 23.6 20.4 6.8 34 8.7 SW 13 26 7 14 1019.8 1019.3 0.0
14/04:30pm 23.1 19.0 6.4 34 8.6 SW 17 30 9 16 1020.0 1019.5 0.0
14/04:00pm 23.1 19.2 7.2 36 8.3 SW 17 26 9 14 1020.3 1019.8 0.0
14/03:30pm 23.0 19.2 7.5 37 8.1 SSW 17 30 9 16 1020.4 1019.9 0.0
14/03:00pm 22.9 19.0 7.1 36 8.2 SW 17 28 9 15 1020.7 1020.1 0.0
14/02:30pm 21.8 17.9 7.2 39 7.6 WSW 17 24 9 13 1020.7 1020.1 0.0
14/02:00pm 21.3 17.9 7.5 41 7.1 WSW 15 30 8 16 1020.9 1020.3 0.0
14/01:30pm 20.2 16.4 7.6 44 6.5 WSW 17 26 9 14 1021.2 1020.6 0.0
14/01:00pm 19.7 16.2 7.4 45 6.3 SW 15 28 8 15 1021.5 1020.9 0.0
14/12:30pm 18.4 14.9 7.2 48 5.7 WSW 15 24 8 13 1021.7 1021.2 0.0
14/12:00pm 18.2 15.6 7.6 50 5.4 SSW 11 22 6 12 1021.7 1021.2 0.0
14/11:30am 17.3 14.6 7.4 52 5.0 SW 11 20 6 11 1021.6 1021.1 0.0
14/11:00am 16.8 13.7 7.2 53 4.8 WSW 13 20 7 11 1021.6 1021.1 0.0

Other Formats:

Comma delimited format used in spreadsheet applications
http://www.bom.gov.au/fwo/IDV60801/IDV60801.94827.axf

JavaScript Object Notation format (JSON) in row-major order
http://www.bom.gov.au/fwo/IDV60801/IDV60801.94827.json